Overland, Kansas
Current Conditions -  °F | °C
As of 5:54 AM on Thursday 18 Dec 2014 (Local Time) from KMKC Reporting Station
Light Snow Light Snow  
Wind Chill: 21°   Ceiling: 600
Heat Index: 29°   Visibility: 3mi
Dew Point: 27°   Wind: 8mph
Humidity: 92%   Direction: 70°ENE
Pressure: 30.21"   Gusts: NA
Location:  39.0213°N, 94.7068°W
Report Text: KMKC 181154Z 07007KT 3SM -SN BR BKN006 OVC036 M02/M03 A3021 RMK AO2 SLP238 P0000 60015 70015 T10171028 11006 21017 56006
Loading
Personal Weather Stations






























Interactive Weather Map New forecast layout! Learn more

10-Day Weather Forecast

Advertisements
Track Severe Weather on mobile